sensor_id;sensor_type;location;lat;lon;timestamp;P1;durP1;ratioP1;P2;durP2;ratioP2
9166;SDS011;4618;48.818;9.088;2023-03-19T00:02:05;6.87;;;4.80;;
9166;SDS011;4618;48.818;9.088;2023-03-19T00:04:31;10.67;;;5.00;;
9166;SDS011;4618;48.818;9.088;2023-03-19T00:06:57;5.03;;;4.30;;
9166;SDS011;4618;48.818;9.088;2023-03-19T00:09:23;6.93;;;4.87;;
9166;SDS011;4618;48.818;9.088;2023-03-19T00:11:48;8.00;;;4.90;;
9166;SDS011;4618;48.818;9.088;2023-03-19T00:14:15;8.27;;;4.73;;
9166;SDS011;4618;48.818;9.088;2023-03-19T00:16:41;9.20;;;4.80;;
9166;SDS011;4618;48.818;9.088;2023-03-19T00:19:06;7.57;;;5.50;;
9166;SDS011;4618;48.818;9.088;2023-03-19T00:21:32;8.87;;;5.47;;
9166;SDS011;4618;48.818;9.088;2023-03-19T00:23:58;6.80;;;5.27;;
9166;SDS011;4618;48.818;9.088;2023-03-19T00:26:30;6.33;;;4.70;;
9166;SDS011;4618;48.818;9.088;2023-03-19T00:28:56;5.23;;;4.47;;
9166;SDS011;4618;48.818;9.088;2023-03-19T00:31:22;7.67;;;5.60;;
9166;SDS011;4618;48.818;9.088;2023-03-19T00:33:50;6.83;;;5.10;;
9166;SDS011;4618;48.818;9.088;2023-03-19T00:36:16;6.70;;;4.67;;
9166;SDS011;4618;48.818;9.088;2023-03-19T00:38:42;8.33;;;5.23;;
9166;SDS011;4618;48.818;9.088;2023-03-19T00:41:08;6.93;;;5.10;;
9166;SDS011;4618;48.818;9.088;2023-03-19T00:43:34;8.73;;;5.20;;
9166;SDS011;4618;48.818;9.088;2023-03-19T00:46:01;10.43;;;8.60;;
9166;SDS011;4618;48.818;9.088;2023-03-19T00:48:27;7.20;;;5.40;;
9166;SDS011;4618;48.818;9.088;2023-03-19T00:50:52;7.30;;;5.70;;
9166;SDS011;4618;48.818;9.088;2023-03-19T00:53:18;6.27;;;5.07;;
9166;SDS011;4618;48.818;9.088;2023-03-19T00:55:44;7.43;;;5.10;;
9166;SDS011;4618;48.818;9.088;2023-03-19T00:58:10;7.27;;;5.17;;
9166;SDS011;4618;48.818;9.088;2023-03-19T01:00:36;6.73;;;4.80;;
9166;SDS011;4618;48.818;9.088;2023-03-19T01:03:02;8.37;;;5.20;;
9166;SDS011;4618;48.818;9.088;2023-03-19T01:05:29;8.33;;;5.50;;
9166;SDS011;4618;48.818;9.088;2023-03-19T01:07:54;6.27;;;5.40;;
9166;SDS011;4618;48.818;9.088;2023-03-19T01:10:20;6.60;;;5.20;;
9166;SDS011;4618;48.818;9.088;2023-03-19T01:12:48;7.50;;;5.70;;
9166;SDS011;4618;48.818;9.088;2023-03-19T01:15:14;6.27;;;5.50;;
9166;SDS011;4618;48.818;9.088;2023-03-19T01:17:40;7.57;;;5.60;;
9166;SDS011;4618;48.818;9.088;2023-03-19T01:20:06;8.43;;;5.30;;
9166;SDS011;4618;48.818;9.088;2023-03-19T01:22:37;8.40;;;6.33;;
9166;SDS011;4618;48.818;9.088;2023-03-19T01:25:04;7.30;;;5.60;;
9166;SDS011;4618;48.818;9.088;2023-03-19T01:27:31;8.33;;;5.47;;
9166;SDS011;4618;48.818;9.088;2023-03-19T01:29:56;9.87;;;5.80;;
9166;SDS011;4618;48.818;9.088;2023-03-19T01:32:22;10.33;;;6.17;;
9166;SDS011;4618;48.818;9.088;2023-03-19T01:34:48;7.60;;;6.03;;
9166;SDS011;4618;48.818;9.088;2023-03-19T01:37:13;8.07;;;6.03;;
9166;SDS011;4618;48.818;9.088;2023-03-19T01:39:39;6.27;;;5.10;;
9166;SDS011;4618;48.818;9.088;2023-03-19T01:42:05;5.50;;;5.00;;
9166;SDS011;4618;48.818;9.088;2023-03-19T01:44:32;7.03;;;3.97;;
9166;SDS011;4618;48.818;9.088;2023-03-19T01:46:59;6.23;;;3.77;;
9166;SDS011;4618;48.818;9.088;2023-03-19T01:49:29;4.13;;;2.80;;
9166;SDS011;4618;48.818;9.088;2023-03-19T01:51:56;4.43;;;2.80;;
9166;SDS011;4618;48.818;9.088;2023-03-19T01:54:23;3.17;;;2.20;;
9166;SDS011;4618;48.818;9.088;2023-03-19T01:56:55;4.40;;;2.47;;
9166;SDS011;4618;48.818;9.088;2023-03-19T02:01:54;4.60;;;3.03;;
9166;SDS011;4618;48.818;9.088;2023-03-19T02:04:24;7.10;;;3.30;;
9166;SDS011;4618;48.818;9.088;2023-03-19T02:06:53;4.63;;;2.90;;
9166;SDS011;4618;48.818;9.088;2023-03-19T02:09:20;7.60;;;3.30;;
9166;SDS011;4618;48.818;9.088;2023-03-19T02:11:46;6.10;;;3.40;;
9166;SDS011;4618;48.818;9.088;2023-03-19T02:14:11;4.20;;;2.43;;
9166;SDS011;4618;48.818;9.088;2023-03-19T02:16:37;3.10;;;2.30;;
9166;SDS011;4618;48.818;9.088;2023-03-19T02:19:04;5.57;;;2.73;;
9166;SDS011;4618;48.818;9.088;2023-03-19T02:21:33;5.50;;;2.90;;
9166;SDS011;4618;48.818;9.088;2023-03-19T02:24:05;3.17;;;2.47;;
9166;SDS011;4618;48.818;9.088;2023-03-19T02:26:36;3.20;;;2.60;;
9166;SDS011;4618;48.818;9.088;2023-03-19T02:29:03;5.20;;;2.73;;
9166;SDS011;4618;48.818;9.088;2023-03-19T02:31:30;3.60;;;2.90;;
9166;SDS011;4618;48.818;9.088;2023-03-19T02:33:56;3.53;;;3.20;;
9166;SDS011;4618;48.818;9.088;2023-03-19T02:36:23;7.10;;;3.20;;
9166;SDS011;4618;48.818;9.088;2023-03-19T02:38:55;4.17;;;3.03;;
9166;SDS011;4618;48.818;9.088;2023-03-19T02:41:25;4.23;;;3.17;;
9166;SDS011;4618;48.818;9.088;2023-03-19T02:43:52;4.97;;;3.17;;
9166;SDS011;4618;48.818;9.088;2023-03-19T02:46:18;5.00;;;3.43;;
9166;SDS011;4618;48.818;9.088;2023-03-19T02:48:44;4.67;;;3.30;;
9166;SDS011;4618;48.818;9.088;2023-03-19T02:51:10;7.77;;;3.53;;
9166;SDS011;4618;48.818;9.088;2023-03-19T02:53:36;3.63;;;2.87;;
9166;SDS011;4618;48.818;9.088;2023-03-19T02:56:01;4.63;;;3.17;;
9166;SDS011;4618;48.818;9.088;2023-03-19T02:58:27;5.43;;;3.30;;
9166;SDS011;4618;48.818;9.088;2023-03-19T03:00:52;4.93;;;3.30;;
9166;SDS011;4618;48.818;9.088;2023-03-19T03:03:18;4.47;;;3.00;;
9166;SDS011;4618;48.818;9.088;2023-03-19T03:05:43;2.77;;;2.57;;
9166;SDS011;4618;48.818;9.088;2023-03-19T03:08:09;3.83;;;3.07;;
9166;SDS011;4618;48.818;9.088;2023-03-19T03:10:35;3.20;;;2.90;;
9166;SDS011;4618;48.818;9.088;2023-03-19T03:13:00;5.10;;;3.10;;
9166;SDS011;4618;48.818;9.088;2023-03-19T03:15:26;3.83;;;3.20;;
9166;SDS011;4618;48.818;9.088;2023-03-19T03:17:52;4.53;;;3.27;;
9166;SDS011;4618;48.818;9.088;2023-03-19T03:20:17;3.40;;;3.10;;
9166;SDS011;4618;48.818;9.088;2023-03-19T03:22:44;5.73;;;5.10;;
9166;SDS011;4618;48.818;9.088;2023-03-19T03:25:10;5.50;;;4.07;;
9166;SDS011;4618;48.818;9.088;2023-03-19T03:27:36;4.87;;;3.60;;
9166;SDS011;4618;48.818;9.088;2023-03-19T03:30:03;4.77;;;3.40;;
9166;SDS011;4618;48.818;9.088;2023-03-19T03:32:33;4.00;;;3.30;;
9166;SDS011;4618;48.818;9.088;2023-03-19T03:34:59;4.23;;;3.83;;
9166;SDS011;4618;48.818;9.088;2023-03-19T03:37:25;6.77;;;3.47;;
9166;SDS011;4618;48.818;9.088;2023-03-19T03:39:50;4.73;;;3.67;;
9166;SDS011;4618;48.818;9.088;2023-03-19T03:42:17;4.70;;;4.20;;
9166;SDS011;4618;48.818;9.088;2023-03-19T03:44:43;4.50;;;4.10;;
9166;SDS011;4618;48.818;9.088;2023-03-19T03:47:08;4.80;;;4.30;;
9166;SDS011;4618;48.818;9.088;2023-03-19T03:49:34;7.37;;;4.00;;
9166;SDS011;4618;48.818;9.088;2023-03-19T03:52:00;4.67;;;4.20;;
9166;SDS011;4618;48.818;9.088;2023-03-19T03:54:25;4.67;;;4.20;;
9166;SDS011;4618;48.818;9.088;2023-03-19T03:56:51;6.10;;;4.70;;
9166;SDS011;4618;48.818;9.088;2023-03-19T03:59:16;5.00;;;4.40;;
9166;SDS011;4618;48.818;9.088;2023-03-19T04:01:42;5.57;;;4.47;;
9166;SDS011;4618;48.818;9.088;2023-03-19T04:04:07;7.60;;;5.00;;
9166;SDS011;4618;48.818;9.088;2023-03-19T04:06:33;6.43;;;5.10;;
9166;SDS011;4618;48.818;9.088;2023-03-19T04:08:59;5.40;;;4.87;;
9166;SDS011;4618;48.818;9.088;2023-03-19T04:11:25;7.27;;;5.23;;
9166;SDS011;4618;48.818;9.088;2023-03-19T04:13:53;9.83;;;7.83;;
9166;SDS011;4618;48.818;9.088;2023-03-19T04:16:21;12.07;;;10.77;;
9166;SDS011;4618;48.818;9.088;2023-03-19T04:18:46;11.50;;;10.30;;
9166;SDS011;4618;48.818;9.088;2023-03-19T04:21:12;10.07;;;8.77;;
9166;SDS011;4618;48.818;9.088;2023-03-19T04:23:37;10.37;;;9.37;;
9166;SDS011;4618;48.818;9.088;2023-03-19T04:26:03;8.77;;;7.33;;
9166;SDS011;4618;48.818;9.088;2023-03-19T04:28:31;11.53;;;6.97;;
9166;SDS011;4618;48.818;9.088;2023-03-19T04:30:57;7.70;;;6.63;;
9166;SDS011;4618;48.818;9.088;2023-03-19T04:33:27;7.33;;;5.77;;
9166;SDS011;4618;48.818;9.088;2023-03-19T04:35:54;7.60;;;6.20;;
9166;SDS011;4618;48.818;9.088;2023-03-19T04:38:20;8.03;;;6.30;;
9166;SDS011;4618;48.818;9.088;2023-03-19T04:40:46;6.73;;;5.90;;
9166;SDS011;4618;48.818;9.088;2023-03-19T04:43:12;7.47;;;5.60;;
9166;SDS011;4618;48.818;9.088;2023-03-19T04:45:38;7.37;;;5.77;;
9166;SDS011;4618;48.818;9.088;2023-03-19T04:48:04;8.13;;;6.10;;
9166;SDS011;4618;48.818;9.088;2023-03-19T04:50:30;9.03;;;8.17;;
9166;SDS011;4618;48.818;9.088;2023-03-19T04:52:56;9.57;;;7.07;;
9166;SDS011;4618;48.818;9.088;2023-03-19T04:55:22;6.60;;;6.00;;
9166;SDS011;4618;48.818;9.088;2023-03-19T04:57:47;6.23;;;5.63;;
9166;SDS011;4618;48.818;9.088;2023-03-19T05:00:13;7.93;;;6.50;;
9166;SDS011;4618;48.818;9.088;2023-03-19T05:02:40;8.77;;;7.67;;
9166;SDS011;4618;48.818;9.088;2023-03-19T05:05:07;8.37;;;6.60;;
9166;SDS011;4618;48.818;9.088;2023-03-19T05:07:33;8.23;;;6.73;;
9166;SDS011;4618;48.818;9.088;2023-03-19T05:09:59;8.70;;;6.10;;
9166;SDS011;4618;48.818;9.088;2023-03-19T05:12:24;9.40;;;5.80;;
9166;SDS011;4618;48.818;9.088;2023-03-19T05:14:51;9.13;;;6.30;;
9166;SDS011;4618;48.818;9.088;2023-03-19T05:17:16;9.57;;;6.43;;
9166;SDS011;4618;48.818;9.088;2023-03-19T05:19:42;9.10;;;6.23;;
9166;SDS011;4618;48.818;9.088;2023-03-19T05:22:07;7.37;;;5.97;;
9166;SDS011;4618;48.818;9.088;2023-03-19T05:24:33;8.80;;;6.27;;
9166;SDS011;4618;48.818;9.088;2023-03-19T05:26:59;6.97;;;6.03;;
9166;SDS011;4618;48.818;9.088;2023-03-19T05:29:24;7.13;;;6.20;;
9166;SDS011;4618;48.818;9.088;2023-03-19T05:31:51;7.63;;;6.33;;
9166;SDS011;4618;48.818;9.088;2023-03-19T05:34:16;7.27;;;6.13;;
9166;SDS011;4618;48.818;9.088;2023-03-19T05:36:42;7.47;;;6.77;;
9166;SDS011;4618;48.818;9.088;2023-03-19T05:39:08;8.93;;;6.37;;
9166;SDS011;4618;48.818;9.088;2023-03-19T05:41:34;7.17;;;6.47;;
9166;SDS011;4618;48.818;9.088;2023-03-19T05:44:00;8.53;;;6.30;;
9166;SDS011;4618;48.818;9.088;2023-03-19T05:46:25;9.57;;;6.43;;
9166;SDS011;4618;48.818;9.088;2023-03-19T05:48:51;9.20;;;6.33;;
9166;SDS011;4618;48.818;9.088;2023-03-19T05:51:17;8.83;;;6.50;;
9166;SDS011;4618;48.818;9.088;2023-03-19T05:53:42;5.60;;;4.57;;
9166;SDS011;4618;48.818;9.088;2023-03-19T05:56:08;3.17;;;2.60;;
9166;SDS011;4618;48.818;9.088;2023-03-19T05:58:33;4.63;;;2.40;;
9166;SDS011;4618;48.818;9.088;2023-03-19T06:01:00;4.83;;;2.43;;
9166;SDS011;4618;48.818;9.088;2023-03-19T06:03:25;3.77;;;2.67;;
9166;SDS011;4618;48.818;9.088;2023-03-19T06:05:51;3.77;;;2.20;;
9166;SDS011;4618;48.818;9.088;2023-03-19T06:08:17;2.60;;;2.40;;
9166;SDS011;4618;48.818;9.088;2023-03-19T06:10:43;3.27;;;2.63;;
9166;SDS011;4618;48.818;9.088;2023-03-19T06:13:09;2.87;;;2.30;;
9166;SDS011;4618;48.818;9.088;2023-03-19T06:15:35;3.53;;;2.37;;
9166;SDS011;4618;48.818;9.088;2023-03-19T06:18:01;3.30;;;2.20;;
9166;SDS011;4618;48.818;9.088;2023-03-19T06:20:27;3.60;;;2.30;;
9166;SDS011;4618;48.818;9.088;2023-03-19T06:22:52;3.80;;;2.43;;
9166;SDS011;4618;48.818;9.088;2023-03-19T06:25:18;3.33;;;2.20;;
9166;SDS011;4618;48.818;9.088;2023-03-19T06:27:44;2.37;;;1.87;;
9166;SDS011;4618;48.818;9.088;2023-03-19T06:30:10;2.90;;;1.67;;
9166;SDS011;4618;48.818;9.088;2023-03-19T06:32:36;3.13;;;2.00;;
9166;SDS011;4618;48.818;9.088;2023-03-19T06:35:02;5.07;;;2.43;;
9166;SDS011;4618;48.818;9.088;2023-03-19T06:37:28;3.60;;;1.80;;
9166;SDS011;4618;48.818;9.088;2023-03-19T06:39:54;2.10;;;1.50;;
9166;SDS011;4618;48.818;9.088;2023-03-19T06:42:20;3.07;;;2.00;;
9166;SDS011;4618;48.818;9.088;2023-03-19T06:44:46;1.97;;;1.80;;
9166;SDS011;4618;48.818;9.088;2023-03-19T06:47:12;3.40;;;1.90;;
9166;SDS011;4618;48.818;9.088;2023-03-19T06:49:38;2.10;;;1.60;;
9166;SDS011;4618;48.818;9.088;2023-03-19T06:52:04;1.70;;;1.37;;
9166;SDS011;4618;48.818;9.088;2023-03-19T06:54:30;3.47;;;1.50;;
9166;SDS011;4618;48.818;9.088;2023-03-19T06:56:56;1.97;;;1.43;;
9166;SDS011;4618;48.818;9.088;2023-03-19T06:59:23;2.10;;;1.50;;
9166;SDS011;4618;48.818;9.088;2023-03-19T07:01:49;2.23;;;1.27;;
9166;SDS011;4618;48.818;9.088;2023-03-19T07:04:14;1.90;;;1.40;;
9166;SDS011;4618;48.818;9.088;2023-03-19T07:06:40;2.17;;;1.40;;
9166;SDS011;4618;48.818;9.088;2023-03-19T07:09:06;2.97;;;1.57;;
9166;SDS011;4618;48.818;9.088;2023-03-19T07:11:31;2.27;;;1.40;;
9166;SDS011;4618;48.818;9.088;2023-03-19T07:13:57;1.90;;;1.40;;
9166;SDS011;4618;48.818;9.088;2023-03-19T07:16:23;1.40;;;1.30;;
9166;SDS011;4618;48.818;9.088;2023-03-19T07:18:48;4.13;;;1.70;;
9166;SDS011;4618;48.818;9.088;2023-03-19T07:21:14;3.30;;;1.60;;
9166;SDS011;4618;48.818;9.088;2023-03-19T07:23:40;2.07;;;1.30;;
9166;SDS011;4618;48.818;9.088;2023-03-19T07:26:05;3.63;;;1.60;;
9166;SDS011;4618;48.818;9.088;2023-03-19T07:28:31;2.53;;;1.40;;
9166;SDS011;4618;48.818;9.088;2023-03-19T07:30:56;2.80;;;1.27;;
9166;SDS011;4618;48.818;9.088;2023-03-19T07:33:22;1.87;;;1.10;;
9166;SDS011;4618;48.818;9.088;2023-03-19T07:35:48;1.77;;;1.03;;
9166;SDS011;4618;48.818;9.088;2023-03-19T07:38:14;2.50;;;1.47;;
9166;SDS011;4618;48.818;9.088;2023-03-19T07:40:39;2.53;;;1.30;;
9166;SDS011;4618;48.818;9.088;2023-03-19T07:43:05;2.87;;;1.33;;
9166;SDS011;4618;48.818;9.088;2023-03-19T07:45:31;1.73;;;1.27;;
9166;SDS011;4618;48.818;9.088;2023-03-19T07:47:56;1.73;;;1.30;;
9166;SDS011;4618;48.818;9.088;2023-03-19T07:50:22;3.73;;;1.60;;
9166;SDS011;4618;48.818;9.088;2023-03-19T07:52:48;2.10;;;1.40;;
9166;SDS011;4618;48.818;9.088;2023-03-19T07:55:15;2.53;;;1.27;;
9166;SDS011;4618;48.818;9.088;2023-03-19T07:57:41;3.30;;;1.20;;
9166;SDS011;4618;48.818;9.088;2023-03-19T08:00:08;4.13;;;1.40;;
9166;SDS011;4618;48.818;9.088;2023-03-19T08:02:34;1.77;;;1.10;;
9166;SDS011;4618;48.818;9.088;2023-03-19T08:05:00;1.57;;;1.43;;
9166;SDS011;4618;48.818;9.088;2023-03-19T08:07:28;2.03;;;1.50;;
9166;SDS011;4618;48.818;9.088;2023-03-19T08:09:57;2.97;;;1.30;;
9166;SDS011;4618;48.818;9.088;2023-03-19T08:12:26;1.77;;;1.10;;
9166;SDS011;4618;48.818;9.088;2023-03-19T08:14:51;2.77;;;1.07;;
9166;SDS011;4618;48.818;9.088;2023-03-19T08:17:17;3.40;;;1.10;;
9166;SDS011;4618;48.818;9.088;2023-03-19T08:19:43;2.47;;;1.03;;
9166;SDS011;4618;48.818;9.088;2023-03-19T08:22:08;3.40;;;1.20;;
9166;SDS011;4618;48.818;9.088;2023-03-19T08:24:34;4.33;;;1.20;;
9166;SDS011;4618;48.818;9.088;2023-03-19T08:27:00;2.10;;;1.30;;
9166;SDS011;4618;48.818;9.088;2023-03-19T08:29:26;1.80;;;1.50;;
9166;SDS011;4618;48.818;9.088;2023-03-19T08:31:52;1.20;;;1.10;;
9166;SDS011;4618;48.818;9.088;2023-03-19T08:34:19;2.97;;;1.30;;
9166;SDS011;4618;48.818;9.088;2023-03-19T08:36:46;1.20;;;0.83;;
9166;SDS011;4618;48.818;9.088;2023-03-19T08:39:11;4.50;;;1.10;;
9166;SDS011;4618;48.818;9.088;2023-03-19T08:41:37;2.10;;;1.10;;
9166;SDS011;4618;48.818;9.088;2023-03-19T08:44:03;1.20;;;0.90;;
9166;SDS011;4618;48.818;9.088;2023-03-19T08:46:29;1.63;;;1.13;;
9166;SDS011;4618;48.818;9.088;2023-03-19T08:48:54;2.40;;;1.13;;
9166;SDS011;4618;48.818;9.088;2023-03-19T08:51:20;2.70;;;1.20;;
9166;SDS011;4618;48.818;9.088;2023-03-19T08:53:47;2.30;;;1.30;;
9166;SDS011;4618;48.818;9.088;2023-03-19T08:56:13;1.80;;;0.87;;
9166;SDS011;4618;48.818;9.088;2023-03-19T08:58:39;1.00;;;1.00;;
9166;SDS011;4618;48.818;9.088;2023-03-19T09:01:07;2.10;;;1.20;;
9166;SDS011;4618;48.818;9.088;2023-03-19T09:03:34;1.57;;;1.10;;
9166;SDS011;4618;48.818;9.088;2023-03-19T09:06:05;1.57;;;1.10;;
9166;SDS011;4618;48.818;9.088;2023-03-19T09:08:33;1.80;;;1.20;;
9166;SDS011;4618;48.818;9.088;2023-03-19T09:11:00;1.43;;;1.10;;
9166;SDS011;4618;48.818;9.088;2023-03-19T09:13:26;1.43;;;1.00;;
9166;SDS011;4618;48.818;9.088;2023-03-19T09:15:52;1.77;;;1.00;;
9166;SDS011;4618;48.818;9.088;2023-03-19T09:18:18;2.50;;;1.13;;
9166;SDS011;4618;48.818;9.088;2023-03-19T09:20:52;1.63;;;1.20;;
9166;SDS011;4618;48.818;9.088;2023-03-19T09:23:18;1.40;;;0.93;;
9166;SDS011;4618;48.818;9.088;2023-03-19T09:25:44;2.57;;;1.30;;
9166;SDS011;4618;48.818;9.088;2023-03-19T09:28:10;3.43;;;1.20;;
9166;SDS011;4618;48.818;9.088;2023-03-19T09:30:36;3.63;;;1.33;;
9166;SDS011;4618;48.818;9.088;2023-03-19T09:33:03;4.83;;;1.80;;
9166;SDS011;4618;48.818;9.088;2023-03-19T09:35:29;2.00;;;1.30;;
9166;SDS011;4618;48.818;9.088;2023-03-19T09:37:59;3.13;;;1.60;;
9166;SDS011;4618;48.818;9.088;2023-03-19T09:40:32;1.67;;;1.13;;
9166;SDS011;4618;48.818;9.088;2023-03-19T09:43:10;3.10;;;1.20;;
9166;SDS011;4618;48.818;9.088;2023-03-19T09:45:45;1.70;;;1.00;;
9166;SDS011;4618;48.818;9.088;2023-03-19T09:48:13;1.10;;;1.00;;
9166;SDS011;4618;48.818;9.088;2023-03-19T09:50:44;2.10;;;1.07;;
9166;SDS011;4618;48.818;9.088;2023-03-19T09:53:19;1.67;;;1.00;;
9166;SDS011;4618;48.818;9.088;2023-03-19T09:55:59;2.53;;;1.30;;
9166;SDS011;4618;48.818;9.088;2023-03-19T09:58:30;1.30;;;1.10;;
9166;SDS011;4618;48.818;9.088;2023-03-19T10:00:58;1.23;;;1.00;;
9166;SDS011;4618;48.818;9.088;2023-03-19T10:17:11;4.27;;;1.80;;
9166;SDS011;4618;48.818;9.088;2023-03-19T10:19:44;1.60;;;1.10;;
9166;SDS011;4618;48.818;9.088;2023-03-19T10:22:18;1.93;;;1.20;;
9166;SDS011;4618;48.818;9.088;2023-03-19T10:24:56;4.10;;;1.50;;
9166;SDS011;4618;48.818;9.088;2023-03-19T10:27:24;2.17;;;1.20;;
9166;SDS011;4618;48.818;9.088;2023-03-19T10:29:52;1.83;;;1.20;;
9166;SDS011;4618;48.818;9.088;2023-03-19T10:37:47;2.93;;;1.50;;
9166;SDS011;4618;48.818;9.088;2023-03-19T10:40:25;3.70;;;1.40;;
9166;SDS011;4618;48.818;9.088;2023-03-19T10:43:17;1.83;;;1.30;;
9166;SDS011;4618;48.818;9.088;2023-03-19T10:45:46;3.20;;;1.40;;
9166;SDS011;4618;48.818;9.088;2023-03-19T10:48:15;1.98;;;1.20;;
9166;SDS011;4618;48.818;9.088;2023-03-19T10:50:44;3.13;;;1.30;;
9166;SDS011;4618;48.818;9.088;2023-03-19T10:53:32;3.57;;;1.57;;
9166;SDS011;4618;48.818;9.088;2023-03-19T10:56:00;3.70;;;1.80;;
9166;SDS011;4618;48.818;9.088;2023-03-19T10:58:31;3.40;;;1.70;;
9166;SDS011;4618;48.818;9.088;2023-03-19T11:01:06;1.73;;;1.40;;
9166;SDS011;4618;48.818;9.088;2023-03-19T11:03:35;2.53;;;1.20;;
9166;SDS011;4618;48.818;9.088;2023-03-19T11:08:55;1.83;;;1.30;;
9166;SDS011;4618;48.818;9.088;2023-03-19T11:11:22;3.97;;;1.53;;
9166;SDS011;4618;48.818;9.088;2023-03-19T11:14:23;2.33;;;1.30;;
9166;SDS011;4618;48.818;9.088;2023-03-19T11:16:56;2.87;;;1.60;;
9166;SDS011;4618;48.818;9.088;2023-03-19T11:19:30;2.03;;;1.30;;
9166;SDS011;4618;48.818;9.088;2023-03-19T11:22:15;3.07;;;1.67;;
9166;SDS011;4618;48.818;9.088;2023-03-19T11:24:52;5.37;;;1.70;;
9166;SDS011;4618;48.818;9.088;2023-03-19T11:27:25;3.53;;;1.90;;
9166;SDS011;4618;48.818;9.088;2023-03-19T11:29:59;2.00;;;1.70;;
9166;SDS011;4618;48.818;9.088;2023-03-19T11:38:29;1.97;;;1.60;;
9166;SDS011;4618;48.818;9.088;2023-03-19T11:44:04;2.27;;;1.60;;
9166;SDS011;4618;48.818;9.088;2023-03-19T11:46:54;1.90;;;1.50;;
9166;SDS011;4618;48.818;9.088;2023-03-19T11:49:35;2.88;;;1.80;;
9166;SDS011;4618;48.818;9.088;2023-03-19T11:52:14;3.50;;;1.73;;
9166;SDS011;4618;48.818;9.088;2023-03-19T12:05:56;1.50;;;1.40;;
9166;SDS011;4618;48.818;9.088;2023-03-19T12:30:14;2.93;;;1.43;;
9166;SDS011;4618;48.818;9.088;2023-03-19T12:32:44;3.37;;;1.67;;
9166;SDS011;4618;48.818;9.088;2023-03-19T12:35:31;1.37;;;1.27;;
9166;SDS011;4618;48.818;9.088;2023-03-19T12:38:02;2.40;;;1.40;;
9166;SDS011;4618;48.818;9.088;2023-03-19T12:40:37;2.77;;;1.53;;
9166;SDS011;4618;48.818;9.088;2023-03-19T12:43:48;1.93;;;1.60;;
9166;SDS011;4618;48.818;9.088;2023-03-19T12:46:11;2.70;;;1.20;;
9166;SDS011;4618;48.818;9.088;2023-03-19T12:48:50;2.17;;;1.10;;
9166;SDS011;4618;48.818;9.088;2023-03-19T12:51:21;3.00;;;1.47;;
9166;SDS011;4618;48.818;9.088;2023-03-19T12:53:53;1.37;;;1.00;;
9166;SDS011;4618;48.818;9.088;2023-03-19T12:58:56;1.87;;;1.00;;
9166;SDS011;4618;48.818;9.088;2023-03-19T13:01:34;1.80;;;1.33;;
9166;SDS011;4618;48.818;9.088;2023-03-19T13:04:12;1.33;;;1.03;;
9166;SDS011;4618;48.818;9.088;2023-03-19T13:09:32;3.00;;;1.40;;
9166;SDS011;4618;48.818;9.088;2023-03-19T13:12:16;4.93;;;1.80;;
9166;SDS011;4618;48.818;9.088;2023-03-19T13:15:09;3.73;;;1.97;;
9166;SDS011;4618;48.818;9.088;2023-03-19T13:20:55;3.90;;;2.57;;
9166;SDS011;4618;48.818;9.088;2023-03-19T13:23:12;6.93;;;2.43;;
9166;SDS011;4618;48.818;9.088;2023-03-19T13:25:43;4.30;;;3.70;;
9166;SDS011;4618;48.818;9.088;2023-03-19T13:28:20;5.93;;;3.90;;
9166;SDS011;4618;48.818;9.088;2023-03-19T13:31:04;5.60;;;3.27;;
9166;SDS011;4618;48.818;9.088;2023-03-19T13:33:30;5.63;;;2.57;;
9166;SDS011;4618;48.818;9.088;2023-03-19T13:36:03;3.97;;;2.13;;
9166;SDS011;4618;48.818;9.088;2023-03-19T13:38:45;3.33;;;2.30;;
9166;SDS011;4618;48.818;9.088;2023-03-19T13:43:56;3.10;;;2.30;;
9166;SDS011;4618;48.818;9.088;2023-03-19T13:46:29;4.83;;;2.37;;
9166;SDS011;4618;48.818;9.088;2023-03-19T13:49:07;4.37;;;2.23;;
9166;SDS011;4618;48.818;9.088;2023-03-19T13:51:52;2.60;;;2.00;;
9166;SDS011;4618;48.818;9.088;2023-03-19T13:59:43;6.17;;;2.17;;
9166;SDS011;4618;48.818;9.088;2023-03-19T14:04:49;4.13;;;2.20;;
9166;SDS011;4618;48.818;9.088;2023-03-19T14:07:20;3.93;;;2.10;;
9166;SDS011;4618;48.818;9.088;2023-03-19T14:12:28;3.27;;;2.10;;
9166;SDS011;4618;48.818;9.088;2023-03-19T14:17:34;2.60;;;1.50;;
9166;SDS011;4618;48.818;9.088;2023-03-19T14:22:39;1.30;;;1.20;;
9166;SDS011;4618;48.818;9.088;2023-03-19T14:25:18;1.17;;;0.97;;
9166;SDS011;4618;48.818;9.088;2023-03-19T14:27:47;1.83;;;1.10;;
9166;SDS011;4618;48.818;9.088;2023-03-19T14:32:48;4.13;;;1.73;;
9166;SDS011;4618;48.818;9.088;2023-03-19T14:35:17;2.50;;;1.20;;
9166;SDS011;4618;48.818;9.088;2023-03-19T14:40:19;1.67;;;1.20;;
9166;SDS011;4618;48.818;9.088;2023-03-19T14:48:39;0.93;;;0.80;;
9166;SDS011;4618;48.818;9.088;2023-03-19T14:51:29;3.00;;;1.13;;
9166;SDS011;4618;48.818;9.088;2023-03-19T14:56:51;2.30;;;1.30;;
9166;SDS011;4618;48.818;9.088;2023-03-19T14:59:20;2.60;;;1.30;;
9166;SDS011;4618;48.818;9.088;2023-03-19T15:01:48;1.80;;;1.33;;
9166;SDS011;4618;48.818;9.088;2023-03-19T15:04:16;1.30;;;1.20;;
9166;SDS011;4618;48.818;9.088;2023-03-19T15:06:50;3.33;;;1.40;;
9166;SDS011;4618;48.818;9.088;2023-03-19T15:09:28;1.80;;;1.20;;
9166;SDS011;4618;48.818;9.088;2023-03-19T15:17:45;4.23;;;1.50;;
9166;SDS011;4618;48.818;9.088;2023-03-19T15:20:20;2.60;;;1.63;;
9166;SDS011;4618;48.818;9.088;2023-03-19T15:22:59;2.57;;;1.50;;
9166;SDS011;4618;48.818;9.088;2023-03-19T15:25:26;1.60;;;1.27;;
9166;SDS011;4618;48.818;9.088;2023-03-19T15:28:08;3.13;;;1.20;;
9166;SDS011;4618;48.818;9.088;2023-03-19T15:30:36;3.60;;;1.33;;
9166;SDS011;4618;48.818;9.088;2023-03-19T15:33:01;2.67;;;1.23;;
9166;SDS011;4618;48.818;9.088;2023-03-19T15:35:29;1.87;;;1.20;;
9166;SDS011;4618;48.818;9.088;2023-03-19T15:37:58;2.00;;;1.33;;
9166;SDS011;4618;48.818;9.088;2023-03-19T15:40:26;1.00;;;1.00;;
9166;SDS011;4618;48.818;9.088;2023-03-19T15:42:54;3.07;;;1.60;;
9166;SDS011;4618;48.818;9.088;2023-03-19T15:45:23;3.10;;;1.80;;
9166;SDS011;4618;48.818;9.088;2023-03-19T15:47:59;2.17;;;1.70;;
9166;SDS011;4618;48.818;9.088;2023-03-19T15:50:34;3.70;;;1.23;;
9166;SDS011;4618;48.818;9.088;2023-03-19T15:53:02;2.00;;;1.67;;
9166;SDS011;4618;48.818;9.088;2023-03-19T15:55:33;3.67;;;1.80;;
9166;SDS011;4618;48.818;9.088;2023-03-19T15:58:02;4.27;;;1.90;;
9166;SDS011;4618;48.818;9.088;2023-03-19T16:00:39;3.03;;;1.70;;
9166;SDS011;4618;48.818;9.088;2023-03-19T16:03:06;2.57;;;2.10;;
9166;SDS011;4618;48.818;9.088;2023-03-19T16:05:35;2.27;;;1.93;;
9166;SDS011;4618;48.818;9.088;2023-03-19T16:08:04;2.53;;;2.30;;
9166;SDS011;4618;48.818;9.088;2023-03-19T16:10:36;3.90;;;2.40;;
9166;SDS011;4618;48.818;9.088;2023-03-19T16:13:03;4.13;;;2.50;;
9166;SDS011;4618;48.818;9.088;2023-03-19T16:15:44;3.17;;;2.03;;
9166;SDS011;4618;48.818;9.088;2023-03-19T16:21:05;2.73;;;1.70;;
9166;SDS011;4618;48.818;9.088;2023-03-19T16:23:49;1.30;;;1.20;;
9166;SDS011;4618;48.818;9.088;2023-03-19T16:26:22;1.17;;;1.03;;
9166;SDS011;4618;48.818;9.088;2023-03-19T16:29:06;2.27;;;1.20;;
9166;SDS011;4618;48.818;9.088;2023-03-19T16:31:44;2.27;;;1.10;;
9166;SDS011;4618;48.818;9.088;2023-03-19T16:35:02;1.80;;;1.10;;
9166;SDS011;4618;48.818;9.088;2023-03-19T16:39:58;1.27;;;0.90;;
9166;SDS011;4618;48.818;9.088;2023-03-19T16:42:45;1.03;;;0.83;;
9166;SDS011;4618;48.818;9.088;2023-03-19T16:47:54;2.63;;;1.27;;
9166;SDS011;4618;48.818;9.088;2023-03-19T16:50:28;2.77;;;1.40;;
9166;SDS011;4618;48.818;9.088;2023-03-19T16:52:59;1.30;;;1.00;;
9166;SDS011;4618;48.818;9.088;2023-03-19T16:55:28;1.10;;;1.00;;
9166;SDS011;4618;48.818;9.088;2023-03-19T16:57:59;1.90;;;1.20;;
9166;SDS011;4618;48.818;9.088;2023-03-19T17:00:30;1.73;;;1.03;;
9166;SDS011;4618;48.818;9.088;2023-03-19T17:02:56;1.97;;;1.27;;
9166;SDS011;4618;48.818;9.088;2023-03-19T17:05:22;1.03;;;0.90;;
9166;SDS011;4618;48.818;9.088;2023-03-19T17:07:49;1.47;;;0.90;;
9166;SDS011;4618;48.818;9.088;2023-03-19T17:10:16;2.00;;;1.10;;
9166;SDS011;4618;48.818;9.088;2023-03-19T17:12:44;1.03;;;0.93;;
9166;SDS011;4618;48.818;9.088;2023-03-19T17:17:49;1.07;;;1.00;;
9166;SDS011;4618;48.818;9.088;2023-03-19T17:20:18;1.30;;;1.20;;
9166;SDS011;4618;48.818;9.088;2023-03-19T17:22:46;1.20;;;0.90;;
9166;SDS011;4618;48.818;9.088;2023-03-19T17:25:12;1.03;;;0.97;;
9166;SDS011;4618;48.818;9.088;2023-03-19T17:27:42;1.40;;;1.30;;
9166;SDS011;4618;48.818;9.088;2023-03-19T17:30:08;2.00;;;1.80;;